createdAt,value
2022-11-17T00:17:41.807Z,78
2022-11-17T00:37:46.685Z,78
2022-11-17T00:47:48.547Z,78
2022-11-17T00:57:51.133Z,79
2022-11-17T01:07:53.355Z,80
2022-11-17T01:17:55.975Z,80
2022-11-17T01:27:58.006Z,80
2022-11-17T01:38:00.473Z,80
2022-11-17T01:48:02.504Z,81
2022-11-17T01:58:04.856Z,82
2022-11-17T02:08:07.202Z,82
2022-11-17T02:18:09.626Z,83
2022-11-17T02:28:11.988Z,83
2022-11-17T02:38:13.844Z,84
2022-11-17T02:48:16.265Z,84
2022-11-17T02:58:18.803Z,84
2022-11-17T03:08:21.210Z,84
2022-11-17T03:18:22.881Z,84
2022-11-17T03:28:24.507Z,85
2022-11-17T03:38:26.559Z,85
2022-11-17T03:48:28.280Z,85
2022-11-17T03:58:30.405Z,85
2022-11-17T04:08:32.780Z,85
2022-11-17T04:18:34.611Z,85
2022-11-17T04:28:37.154Z,85
2022-11-17T04:38:39.088Z,85
2022-11-17T04:48:41.223Z,85
2022-11-17T04:58:43.485Z,85
2022-11-17T05:08:45.749Z,85
2022-11-17T05:18:48.170Z,85
2022-11-17T05:28:50.324Z,85
2022-11-17T05:38:52.911Z,84
2022-11-17T05:48:54.895Z,84
2022-11-17T05:58:57.016Z,84
2022-11-17T06:08:59.366Z,84
2022-11-17T06:19:01.316Z,84
2022-11-17T06:29:03.890Z,84
2022-11-17T06:39:05.810Z,85
2022-11-17T06:49:08.245Z,85
2022-11-17T06:59:10.450Z,85
2022-11-17T07:09:12.877Z,86
2022-11-17T07:19:15.284Z,86
2022-11-17T07:39:21.604Z,86
2022-11-17T07:49:21.065Z,86
2022-11-17T07:59:23.391Z,86
2022-11-17T08:09:25.376Z,86
2022-11-17T08:19:27.921Z,86
2022-11-17T08:29:30.369Z,86
2022-11-17T08:39:32.501Z,86
2022-11-17T08:49:34.958Z,86
2022-11-17T08:59:37.395Z,86
2022-11-17T09:09:39.630Z,86
2022-11-17T09:19:41.659Z,86
2022-11-17T09:29:44.065Z,86
2022-11-17T09:39:46.593Z,87
2022-11-17T09:49:52.251Z,87
2022-11-17T09:59:50.906Z,87
2022-11-17T10:09:52.895Z,87
2022-11-17T10:29:57.088Z,86
2022-11-17T10:39:59.060Z,86
2022-11-17T10:50:01.635Z,86
2022-11-17T11:00:03.397Z,86
2022-11-17T11:10:05.703Z,85
2022-11-17T11:20:07.625Z,85
2022-11-17T11:30:09.318Z,84
2022-11-17T11:40:11.615Z,84
2022-11-17T11:50:13.435Z,83
2022-11-17T12:00:15.106Z,83
2022-11-17T12:10:17.549Z,82
2022-11-17T12:20:19.642Z,82
2022-11-17T12:50:25.365Z,81
2022-11-17T13:00:27.047Z,80
2022-11-17T13:10:29.271Z,81
2022-11-17T14:00:38.776Z,81
2022-11-17T14:10:41.301Z,81
2022-11-17T14:30:52.858Z,82
2022-11-17T15:00:59.777Z,81
2022-11-17T15:11:02.175Z,80
2022-11-17T15:21:04.323Z,80
2022-11-17T16:21:17.520Z,79
2022-11-17T16:41:22.279Z,78
2022-11-17T17:31:34.596Z,81
2022-11-17T18:01:40.566Z,83
2022-11-17T18:31:47.088Z,84
2022-11-17T18:51:51.173Z,84
2022-11-17T19:01:53.205Z,84
2022-11-17T19:11:55.608Z,85
2022-11-17T19:21:57.874Z,85
2022-11-17T19:32:00.016Z,85
2022-11-17T19:52:04.224Z,85
2022-11-17T20:02:06.247Z,85
2022-11-17T20:12:08.393Z,85
2022-11-17T20:22:11.033Z,86
2022-11-17T20:32:12.755Z,86
2022-11-17T20:42:14.409Z,86
2022-11-17T20:52:17.039Z,86
2022-11-17T21:12:21.192Z,86
2022-11-17T21:22:23.391Z,86
2022-11-17T21:32:25.765Z,86
2022-11-17T21:52:30.350Z,86
2022-11-17T22:02:32.803Z,86
2022-11-17T22:12:35.173Z,87
2022-11-17T22:22:37.762Z,87
2022-11-17T22:32:44.055Z,87
2022-11-17T22:42:42.174Z,87
2022-11-17T22:52:44.558Z,87
2022-11-17T23:02:46.769Z,87
2022-11-17T23:12:48.500Z,87
2022-11-17T23:22:50.465Z,87
2022-11-17T23:32:52.893Z,87
2022-11-17T23:42:54.630Z,87
2022-11-17T23:52:56.709Z,87
